»·PEaware :: PHSVX KEMT-KCMA

PHSVX :: KEMT-KCMA

FLIGHT INFORMATION

Flight Status: Arrived
Operator: Unknown
More flights by this operator :: More flights under this callsign
Pilot: J.R. H. (1229)
Aircraft: PIPER PA-31T-620 CHEYENNE 2
(PAY2)
More flights by this aircraft type
Origin: KEMT El Monte
United States
Destination: KCMA Camarillo
United States
More flights between these airports :: More routes between these airports
Route: +PDZ V197 POM V264 ITSME V186 FIM
File this flight plan on PilotEdge
Remarks:
Altitude:
(Current/Filed)
8,000ft
Speed:
(Current/Filed)
220kts
Departed: 30-Jun-19 09:39 AM
Arrived: 30-Jun-19 10:15 AM
Distance/Time
Traveled:
53nm/0:36
Distance/Time
To Go:
Arrived

Flight Plot

Page will automatically refresh every two minutes.

Flight plan parsing failed; only flown route is shown


Map Options




Map Legend


Flown Route
Filed Route
Departure Airport
Arrival Airport
Navaid (VOR, NDB)
Fix

Horizontal Profiles

Position Reports

Time Latitude Longitude Heading Altitude Ground
Speed
30-Jun-19 09:23 34.088644 -118.032262 295 293ft 0kts
30-Jun-19 09:24 34.088644 -118.032262 295 293ft 0kts
30-Jun-19 09:24 34.088644 -118.032262 295 293ft 0kts
30-Jun-19 09:26 34.088644 -118.032262 295 293ft 0kts
30-Jun-19 09:27 34.088644 -118.032262 295 293ft 0kts
30-Jun-19 09:27 34.088644 -118.032262 295 293ft 0kts
30-Jun-19 09:28 34.088644 -118.032262 295 293ft 0kts
30-Jun-19 09:30 34.088644 -118.032262 295 293ft 0kts
30-Jun-19 09:30 34.088644 -118.032262 295 293ft 0kts
30-Jun-19 09:31 34.089393 -118.032298 24 293ft 5kts
30-Jun-19 09:33 34.090657 -118.031607 354 296ft 0kts
30-Jun-19 09:33 34.090657 -118.031607 354 296ft 0kts
30-Jun-19 09:34 34.090657 -118.031607 354 296ft 0kts
30-Jun-19 09:35 34.090658 -118.031607 352 296ft 0kts
30-Jun-19 09:36 34.090679 -118.031611 346 296ft 0kts
30-Jun-19 09:37 34.090845 -118.031849 288 295ft 3kts
30-Jun-19 09:38 34.080570 -118.037698 204 619ft 139kts
30-Jun-19 09:39 34.046430 -118.057128 205 3843ft 129kts
30-Jun-19 09:40 33.999562 -118.083302 205 4010ft 216kts
30-Jun-19 09:41 33.945351 -118.093471 122 3996ft 217kts
30-Jun-19 09:42 33.975026 -118.029407 43 3995ft 245kts
30-Jun-19 09:43 34.024339 -117.970066 44 3982ft 248kts
30-Jun-19 09:44 34.077850 -117.940830 313 4588ft 219kts
30-Jun-19 09:45 34.102200 -118.001891 283 6147ft 202kts
30-Jun-19 09:46 34.118014 -118.063479 285 7637ft 211kts
30-Jun-19 09:47 34.119354 -118.141776 274 8016ft 249kts
30-Jun-19 09:48 34.144735 -118.219616 295 8013ft 244kts
30-Jun-19 09:49 34.172172 -118.296822 292 8010ft 247kts
30-Jun-19 09:50 34.198074 -118.374797 292 8008ft 248kts
30-Jun-19 09:51 34.224032 -118.454194 292 8008ft 251kts
30-Jun-19 09:52 34.245143 -118.535496 291 8008ft 251kts
30-Jun-19 09:53 34.269744 -118.616059 291 8006ft 251kts
30-Jun-19 09:54 34.293673 -118.693955 290 7588ft 241kts
30-Jun-19 09:55 34.316756 -118.770037 290 6456ft 236kts
30-Jun-19 09:56 34.338870 -118.843132 290 5996ft 211kts
30-Jun-19 09:57 34.319819 -118.885540 154 6000ft 198kts
30-Jun-19 09:58 34.289040 -118.832280 117 5998ft 186kts
30-Jun-19 09:59 34.250977 -118.790967 140 6000ft 180kts
30-Jun-19 10:00 34.211727 -118.752506 140 6001ft 178kts
30-Jun-19 10:01 34.172842 -118.714324 140 6002ft 178kts
30-Jun-19 10:02 34.133819 -118.675952 140 6002ft 178kts
30-Jun-19 10:03 34.146185 -118.639970 354 6009ft 165kts
30-Jun-19 10:04 34.192696 -118.645854 352 6004ft 167kts
30-Jun-19 10:05 34.231184 -118.667922 287 5832ft 177kts
30-Jun-19 10:06 34.245716 -118.733204 285 4447ft 210kts
30-Jun-19 10:07 34.247158 -118.800943 261 3996ft 186kts
30-Jun-19 10:08 34.239917 -118.859696 263 3913ft 148kts
30-Jun-19 10:09 34.234078 -118.909713 262 3082ft 148kts
30-Jun-19 10:10 34.228233 -118.960131 262 2366ft 148kts
30-Jun-19 10:11 34.222585 -119.008477 261 1996ft 132kts
30-Jun-19 10:12 34.213439 -119.054227 268 903ft 121kts
30-Jun-19 10:13 34.213709 -119.092217 270 73ft 74kts
30-Jun-19 10:14 34.212928 -119.100888 181 59ft 6kts
30-Jun-19 10:15 34.211807 -119.100204 125 60ft 0kts
30-Jun-19 10:16 34.211741 -119.100093 125 60ft 0kts
30-Jun-19 10:17 34.211675 -119.099985 128 60ft 0kts
30-Jun-19 10:18 34.211604 -119.099885 132 60ft 0kts

Navigation Log

Ident Type
Flight plan parsing failed, navigation log unavailable